createdAt,value
2017-06-27T00:00:55.453Z,76.20
2017-06-27T00:03:23.775Z,76.90
2017-06-27T00:05:52.059Z,77.30
2017-06-27T00:08:20.336Z,77.00
2017-06-27T00:10:48.639Z,76.80
2017-06-27T00:13:16.911Z,76.20
2017-06-27T00:15:45.178Z,76.20
2017-06-27T00:18:13.471Z,76.30
2017-06-27T00:20:41.742Z,77.90
2017-06-27T00:23:10.024Z,78.40
2017-06-27T00:25:38.300Z,78.50
2017-06-27T00:28:06.587Z,77.00
2017-06-27T00:30:34.857Z,77.30
2017-06-27T00:33:03.199Z,76.90
2017-06-27T00:35:31.467Z,75.60
2017-06-27T00:37:59.770Z,75.10
2017-06-27T00:40:28.044Z,76.50
2017-06-27T00:42:56.340Z,76.60
2017-06-27T00:45:24.590Z,75.80
2017-06-27T00:47:52.873Z,75.60
2017-06-27T00:50:21.152Z,78.10
2017-06-27T00:52:49.427Z,79.40
2017-06-27T00:55:17.707Z,79.30
2017-06-27T00:57:45.979Z,78.60
2017-06-27T01:03:14.500Z,80.10
2017-06-27T01:05:42.783Z,80.30
2017-06-27T01:08:11.823Z,81.40
2017-06-27T01:10:40.111Z,80.90
2017-06-27T01:13:08.388Z,80.00
2017-06-27T01:15:36.670Z,80.40
2017-06-27T01:18:04.939Z,79.80
2017-06-27T01:20:33.211Z,79.30
2017-06-27T01:23:01.496Z,79.80
2017-06-27T01:25:29.762Z,79.00
2017-06-27T01:27:58.059Z,79.00
2017-06-27T01:30:26.317Z,78.70
2017-06-27T01:32:54.590Z,77.00
2017-06-27T01:35:22.863Z,77.30
2017-06-27T01:37:51.143Z,76.80
2017-06-27T01:40:19.419Z,76.40
2017-06-27T01:42:47.727Z,76.20
2017-06-27T01:45:16.000Z,77.50
2017-06-27T01:47:44.279Z,78.90
2017-06-27T01:50:12.555Z,78.70
2017-06-27T01:52:40.832Z,77.30
2017-06-27T01:55:09.114Z,79.50
2017-06-27T01:57:37.374Z,77.70
2017-06-27T02:00:05.655Z,78.90
2017-06-27T02:02:33.918Z,79.60
2017-06-27T02:05:02.194Z,78.50
2017-06-27T02:07:30.551Z,79.10
2017-06-27T02:09:58.831Z,79.30
2017-06-27T02:12:27.107Z,79.30
2017-06-27T02:14:55.397Z,81.10
2017-06-27T02:17:23.654Z,80.20
2017-06-27T02:19:51.942Z,80.60
2017-06-27T02:22:20.234Z,80.40
2017-06-27T02:24:48.502Z,81.30
2017-06-27T02:27:16.791Z,80.50
2017-06-27T02:29:45.069Z,80.30
2017-06-27T02:32:13.343Z,81.10
2017-06-27T02:34:41.607Z,81.00
2017-06-27T02:37:09.895Z,80.00
2017-06-27T02:39:38.169Z,81.30
2017-06-27T02:42:06.446Z,81.50
2017-06-27T02:44:34.716Z,81.00
2017-06-27T02:47:03.053Z,81.30
2017-06-27T02:49:31.319Z,82.00
2017-06-27T02:51:59.600Z,81.50
2017-06-27T02:54:27.895Z,81.70
2017-06-27T02:56:56.179Z,82.50
2017-06-27T02:59:24.447Z,82.10
2017-06-27T03:01:53.523Z,82.00
2017-06-27T03:04:21.791Z,81.70
2017-06-27T03:06:50.091Z,81.00
2017-06-27T03:09:18.382Z,80.70
2017-06-27T03:11:47.408Z,80.60
2017-06-27T03:14:15.691Z,80.60
2017-06-27T03:16:43.964Z,81.30
2017-06-27T03:19:12.246Z,81.70
2017-06-27T03:21:40.515Z,82.50
2017-06-27T03:24:08.802Z,82.70
2017-06-27T03:26:37.082Z,83.40
2017-06-27T03:29:05.383Z,82.10
2017-06-27T03:31:33.650Z,81.50
2017-06-27T03:34:01.943Z,82.00
2017-06-27T03:36:30.207Z,82.50
2017-06-27T03:38:58.494Z,82.10
2017-06-27T03:41:26.803Z,81.90
2017-06-27T03:43:55.842Z,81.60
2017-06-27T03:46:24.123Z,81.50
2017-06-27T03:48:52.395Z,81.30
2017-06-27T03:51:20.677Z,81.20
2017-06-27T03:53:48.943Z,81.30
2017-06-27T03:56:17.243Z,80.90
2017-06-27T03:58:45.507Z,81.60
2017-06-27T04:01:13.799Z,80.80
2017-06-27T04:03:42.071Z,81.40
2017-06-27T04:06:10.352Z,81.20
2017-06-27T04:08:38.623Z,81.20
2017-06-27T04:11:06.907Z,81.30
2017-06-27T04:13:35.175Z,81.10
2017-06-27T04:16:03.455Z,80.60
2017-06-27T04:18:31.735Z,79.90
2017-06-27T04:21:00.020Z,80.00
2017-06-27T04:23:28.333Z,80.00
2017-06-27T04:25:56.596Z,79.50
2017-06-27T04:28:24.879Z,79.90
2017-06-27T04:30:53.912Z,79.50
2017-06-27T04:33:22.204Z,80.00
2017-06-27T04:35:50.511Z,80.10
2017-06-27T04:38:18.798Z,80.80
2017-06-27T04:40:47.060Z,80.40
2017-06-27T04:43:15.338Z,80.70
2017-06-27T04:45:43.622Z,81.20
2017-06-27T04:48:11.888Z,80.50
2017-06-27T04:50:40.217Z,80.70
2017-06-27T04:53:08.479Z,81.10
2017-06-27T04:55:37.530Z,80.50
2017-06-27T04:58:05.795Z,80.40
2017-06-27T05:00:34.081Z,79.90
2017-06-27T05:03:02.357Z,80.20
2017-06-27T05:05:30.632Z,79.60
2017-06-27T05:07:58.913Z,80.10
2017-06-27T05:10:27.190Z,79.20
2017-06-27T05:12:55.491Z,80.60
2017-06-27T05:15:23.755Z,79.70
2017-06-27T05:17:52.039Z,79.40
2017-06-27T05:20:20.303Z,80.00
2017-06-27T05:22:48.596Z,79.90
2017-06-27T05:25:16.876Z,79.70
2017-06-27T05:27:49.932Z,79.60
2017-06-27T05:30:18.191Z,79.30
2017-06-27T05:32:46.483Z,78.60
2017-06-27T05:35:14.759Z,79.20
2017-06-27T05:37:43.030Z,79.10
2017-06-27T05:40:11.311Z,80.40
2017-06-27T05:42:39.582Z,79.50
2017-06-27T05:45:07.861Z,79.10
2017-06-27T05:47:36.135Z,78.50
2017-06-27T05:50:04.415Z,78.20
2017-06-27T05:52:32.685Z,79.70
2017-06-27T05:55:00.965Z,78.50
2017-06-27T05:57:29.237Z,79.10
2017-06-27T05:59:57.518Z,78.80
2017-06-27T06:02:25.787Z,79.10
2017-06-27T06:04:54.080Z,79.30
2017-06-27T06:07:22.345Z,78.80
2017-06-27T06:09:50.622Z,78.50
2017-06-27T06:12:18.907Z,78.50
2017-06-27T06:14:47.171Z,77.90
2017-06-27T06:17:15.460Z,77.50
2017-06-27T06:19:43.728Z,76.50
2017-06-27T06:22:12.011Z,76.40
2017-06-27T06:24:40.278Z,75.30
2017-06-27T06:27:08.569Z,75.20
2017-06-27T06:29:36.844Z,75.90
2017-06-27T06:32:05.148Z,75.80
2017-06-27T06:34:33.429Z,76.30
2017-06-27T06:37:01.700Z,75.80
2017-06-27T06:39:29.979Z,76.10
2017-06-27T06:41:58.252Z,75.90
2017-06-27T06:44:26.531Z,76.20
2017-06-27T06:46:54.808Z,75.50
2017-06-27T06:49:23.088Z,75.80
2017-06-27T06:51:51.358Z,74.20
2017-06-27T06:54:19.635Z,74.00
2017-06-27T06:56:47.904Z,72.70
2017-06-27T06:59:16.186Z,72.70
2017-06-27T07:01:44.464Z,72.70
2017-06-27T07:04:12.773Z,71.50
2017-06-27T07:06:41.038Z,70.90
2017-06-27T07:09:09.312Z,69.60
2017-06-27T07:11:37.590Z,70.80
2017-06-27T07:14:05.895Z,71.50
2017-06-27T07:16:34.172Z,69.40
2017-06-27T07:19:02.445Z,70.50
2017-06-27T07:21:30.721Z,68.60
2017-06-27T07:23:58.992Z,70.10
2017-06-27T07:26:27.273Z,69.40
2017-06-27T07:28:55.547Z,70.70
2017-06-27T07:31:23.840Z,69.20
2017-06-27T07:33:52.127Z,69.00
2017-06-27T07:36:20.387Z,69.50
2017-06-27T07:38:49.441Z,70.00
2017-06-27T07:41:17.713Z,70.00
2017-06-27T07:43:46.017Z,70.40
2017-06-27T07:46:14.276Z,69.40
2017-06-27T07:48:42.559Z,67.50
2017-06-27T07:51:10.832Z,69.90
2017-06-27T07:53:39.125Z,66.40
2017-06-27T07:56:07.395Z,66.00
2017-06-27T07:58:35.678Z,67.90
2017-06-27T08:01:03.947Z,67.00
2017-06-27T08:03:32.387Z,65.20
2017-06-27T08:06:00.663Z,65.50
2017-06-27T08:08:28.930Z,64.60
2017-06-27T08:10:57.272Z,64.70
2017-06-27T08:13:25.531Z,64.80
2017-06-27T08:15:53.815Z,64.60
2017-06-27T08:18:22.091Z,62.00
2017-06-27T08:20:50.376Z,62.40
2017-06-27T08:23:18.652Z,62.40
2017-06-27T08:25:46.944Z,62.60
2017-06-27T08:28:15.983Z,62.00
2017-06-27T08:30:44.284Z,62.00
2017-06-27T08:33:12.563Z,59.90
2017-06-27T08:35:40.855Z,60.00
2017-06-27T08:38:09.126Z,61.10
2017-06-27T08:40:37.425Z,60.40
2017-06-27T08:43:05.695Z,59.10
2017-06-27T08:45:33.986Z,58.90
2017-06-27T08:48:02.287Z,60.30
2017-06-27T08:50:30.564Z,59.10
2017-06-27T08:52:58.864Z,57.50
2017-06-27T08:55:27.153Z,58.30
2017-06-27T08:57:55.435Z,57.90
2017-06-27T09:00:23.710Z,58.10
2017-06-27T09:02:52.012Z,58.70
2017-06-27T09:05:20.279Z,58.20
2017-06-27T09:07:48.575Z,58.10
2017-06-27T09:10:17.614Z,58.80
2017-06-27T09:12:45.893Z,58.30
2017-06-27T09:15:14.184Z,58.60
2017-06-27T09:17:42.461Z,57.40
2017-06-27T09:20:10.742Z,56.60
2017-06-27T09:22:39.019Z,57.60
2017-06-27T09:25:07.310Z,56.80
2017-06-27T09:27:35.591Z,57.30
2017-06-27T09:30:03.887Z,56.40
2017-06-27T09:32:32.986Z,57.00
2017-06-27T09:35:01.272Z,56.50
2017-06-27T09:37:30.312Z,57.80
2017-06-27T09:39:58.623Z,57.80
2017-06-27T09:42:26.895Z,58.00
2017-06-27T09:44:55.170Z,57.40
2017-06-27T09:47:23.472Z,56.80
2017-06-27T09:49:52.519Z,56.50
2017-06-27T09:52:20.814Z,56.40
2017-06-27T09:54:49.095Z,56.10
2017-06-27T09:57:17.383Z,55.30
2017-06-27T09:59:45.694Z,54.80
2017-06-27T10:02:14.740Z,52.90
2017-06-27T10:04:43.011Z,52.90
2017-06-27T10:07:11.312Z,53.20
2017-06-27T10:09:39.591Z,51.80
2017-06-27T10:12:07.903Z,52.20
2017-06-27T10:14:36.183Z,52.60
2017-06-27T10:17:04.464Z,53.70
2017-06-27T10:19:32.764Z,53.80
2017-06-27T10:22:01.040Z,53.10
2017-06-27T10:24:29.331Z,53.30
2017-06-27T10:26:57.600Z,52.70
2017-06-27T10:29:25.933Z,52.30
2017-06-27T10:31:54.227Z,50.80
2017-06-27T10:34:22.522Z,51.20
2017-06-27T10:36:50.787Z,50.50
2017-06-27T10:39:19.075Z,50.70
2017-06-27T10:41:47.351Z,49.10
2017-06-27T10:44:15.657Z,49.10
2017-06-27T10:46:43.935Z,50.50
2017-06-27T10:49:12.207Z,49.90
2017-06-27T10:51:40.495Z,50.10
2017-06-27T10:54:08.784Z,49.90
2017-06-27T10:56:37.073Z,50.10
2017-06-27T10:59:06.103Z,49.30
2017-06-27T11:01:34.403Z,49.30
2017-06-27T11:04:02.684Z,49.30
2017-06-27T11:06:31.015Z,49.40
2017-06-27T11:08:59.290Z,47.90
2017-06-27T11:11:27.603Z,48.60
2017-06-27T11:13:55.872Z,48.00
2017-06-27T11:16:24.139Z,49.00
2017-06-27T11:18:52.435Z,47.90
2017-06-27T11:21:20.707Z,49.10
2017-06-27T11:23:48.996Z,48.70
2017-06-27T11:26:17.274Z,46.00
2017-06-27T11:28:45.632Z,46.90
2017-06-27T11:31:13.904Z,47.40
2017-06-27T11:33:42.191Z,48.30
2017-06-27T11:36:10.463Z,48.60
2017-06-27T11:38:38.751Z,48.70
2017-06-27T11:41:07.024Z,48.40
2017-06-27T11:43:35.334Z,48.30
2017-06-27T11:46:03.608Z,48.20
2017-06-27T11:48:31.883Z,47.10
2017-06-27T11:51:00.171Z,46.50
2017-06-27T11:53:28.439Z,45.80
2017-06-27T11:55:56.742Z,46.10
2017-06-27T11:58:25.771Z,46.80
2017-06-27T12:01:05.895Z,46.70
2017-06-27T12:03:46.947Z,44.80
2017-06-27T12:06:18.037Z,44.80
2017-06-27T12:09:01.178Z,45.50
2017-06-27T12:11:29.471Z,44.40
2017-06-27T12:13:57.743Z,44.70
2017-06-27T12:16:26.035Z,45.00
2017-06-27T12:18:54.307Z,45.00
2017-06-27T12:21:22.596Z,44.30
2017-06-27T12:23:50.863Z,43.60
2017-06-27T12:26:19.167Z,43.40
2017-06-27T12:28:47.444Z,44.40
2017-06-27T12:31:15.721Z,43.70
2017-06-27T12:33:44.015Z,43.40
2017-06-27T12:36:13.056Z,44.40
2017-06-27T12:38:41.344Z,44.30
2017-06-27T12:41:09.623Z,44.00
2017-06-27T12:43:37.911Z,44.60
2017-06-27T12:46:06.181Z,44.50
2017-06-27T12:48:34.463Z,44.90
2017-06-27T12:51:02.744Z,44.90
2017-06-27T12:53:31.027Z,45.00
2017-06-27T12:55:59.295Z,45.80
2017-06-27T12:58:27.606Z,45.30
2017-06-27T13:00:55.874Z,44.50
2017-06-27T13:03:24.928Z,45.20
2017-06-27T13:05:53.216Z,45.20
2017-06-27T13:08:21.479Z,45.70
2017-06-27T13:10:49.767Z,45.40
2017-06-27T13:13:18.036Z,45.90
2017-06-27T13:15:46.328Z,46.30
2017-06-27T13:18:14.595Z,46.50
2017-06-27T13:20:42.888Z,45.30
2017-06-27T13:23:11.155Z,44.50
2017-06-27T13:25:39.451Z,44.80
2017-06-27T13:28:07.730Z,44.90
2017-06-27T13:30:36.027Z,44.20
2017-06-27T13:33:04.310Z,45.10
2017-06-27T13:35:32.599Z,45.20
2017-06-27T13:38:00.899Z,44.50
2017-06-27T13:40:29.160Z,44.90
2017-06-27T13:42:57.442Z,44.10
2017-06-27T13:45:25.710Z,45.10
2017-06-27T13:47:54.007Z,45.00
2017-06-27T13:50:22.275Z,45.30
2017-06-27T13:52:50.576Z,44.40
2017-06-27T13:55:18.857Z,43.60
2017-06-27T13:57:47.147Z,43.90
2017-06-27T14:00:15.425Z,43.30
2017-06-27T14:02:43.720Z,41.80
2017-06-27T14:05:12.757Z,42.80
2017-06-27T14:07:41.029Z,42.80
2017-06-27T14:10:09.328Z,42.60
2017-06-27T14:12:37.602Z,41.60
2017-06-27T14:15:05.892Z,42.20
2017-06-27T14:17:34.151Z,41.70
2017-06-27T14:20:02.456Z,41.60
2017-06-27T14:22:30.728Z,41.50
2017-06-27T14:24:59.011Z,40.90
2017-06-27T14:27:27.286Z,41.80
2017-06-27T14:29:55.585Z,41.10
2017-06-27T14:32:24.623Z,41.80
2017-06-27T14:34:52.896Z,41.80
2017-06-27T14:37:21.187Z,46.20
2017-06-27T14:39:49.455Z,47.60
2017-06-27T14:42:17.748Z,48.00
2017-06-27T14:44:46.016Z,49.00
2017-06-27T14:47:14.465Z,49.30
2017-06-27T14:49:42.755Z,49.50
2017-06-27T14:52:11.052Z,50.40
2017-06-27T14:54:39.333Z,50.60
2017-06-27T14:57:07.613Z,49.80
2017-06-27T14:59:35.882Z,49.90
2017-06-27T15:02:04.178Z,50.50
2017-06-27T15:04:32.443Z,50.20
2017-06-27T15:07:00.713Z,50.40
2017-06-27T15:09:29.000Z,50.40
2017-06-27T15:11:57.271Z,50.00
2017-06-27T15:14:25.555Z,50.00
2017-06-27T15:16:53.819Z,49.80
2017-06-27T15:19:22.107Z,50.30
2017-06-27T15:21:50.381Z,52.50
2017-06-27T15:24:18.664Z,53.40
2017-06-27T15:26:46.943Z,53.70
2017-06-27T15:29:15.259Z,54.30
2017-06-27T15:31:43.533Z,53.60
2017-06-27T15:34:11.811Z,53.10
2017-06-27T15:36:40.867Z,53.80
2017-06-27T15:39:09.143Z,53.80
2017-06-27T15:41:37.430Z,53.90
2017-06-27T15:44:05.746Z,54.40
2017-06-27T15:46:34.807Z,54.80
2017-06-27T15:49:03.086Z,54.70
2017-06-27T15:51:31.377Z,53.90
2017-06-27T15:53:59.647Z,53.30
2017-06-27T15:56:27.950Z,53.80
2017-06-27T15:58:56.992Z,53.90
2017-06-27T16:01:25.283Z,53.90
2017-06-27T16:03:53.579Z,53.30
2017-06-27T16:06:21.859Z,52.70
2017-06-27T16:08:50.157Z,53.00
2017-06-27T16:11:18.435Z,52.70
2017-06-27T16:13:47.495Z,53.60
2017-06-27T16:16:15.791Z,53.50
2017-06-27T16:18:44.079Z,53.60
2017-06-27T16:21:13.118Z,53.70
2017-06-27T16:23:41.426Z,53.70
2017-06-27T16:26:09.698Z,54.30
2017-06-27T16:28:37.983Z,54.70
2017-06-27T16:31:06.474Z,55.40
2017-06-27T16:33:34.739Z,56.50
2017-06-27T16:36:03.034Z,56.70
2017-06-27T16:38:32.090Z,56.80
2017-06-27T16:41:00.383Z,56.40
2017-06-27T16:43:28.663Z,56.80
2017-06-27T16:45:56.955Z,56.50
2017-06-27T16:48:25.225Z,59.10
2017-06-27T16:50:53.536Z,61.70
2017-06-27T16:53:21.813Z,60.20
2017-06-27T16:55:50.098Z,58.00
2017-06-27T16:58:18.383Z,60.80
2017-06-27T17:00:46.739Z,62.20
2017-06-27T17:03:15.032Z,61.90
2017-06-27T17:05:43.314Z,60.70
2017-06-27T17:08:11.600Z,60.60
2017-06-27T17:10:39.876Z,62.00
2017-06-27T17:13:08.167Z,62.50
2017-06-27T17:15:36.445Z,63.30
2017-06-27T17:18:04.739Z,63.20
2017-06-27T17:20:33.007Z,62.10
2017-06-27T17:23:01.347Z,64.40
2017-06-27T17:25:29.630Z,63.00
2017-06-27T17:27:57.911Z,62.90
2017-06-27T17:30:26.207Z,62.80
2017-06-27T17:32:54.492Z,63.00
2017-06-27T17:35:22.805Z,62.00
2017-06-27T17:37:51.083Z,64.20
2017-06-27T17:40:20.038Z,65.10
2017-06-27T17:42:48.340Z,65.60
2017-06-27T17:45:16.646Z,66.50
2017-06-27T17:47:45.687Z,66.80
2017-06-27T17:50:13.983Z,66.80
2017-06-27T17:52:42.260Z,64.90
2017-06-27T17:55:10.571Z,63.60
2017-06-27T17:57:38.847Z,63.70
2017-06-27T18:00:07.896Z,65.50
2017-06-27T18:02:36.184Z,65.50
2017-06-27T18:05:04.463Z,64.90
2017-06-27T18:07:32.751Z,64.90
2017-06-27T18:10:01.037Z,63.40
2017-06-27T18:12:29.328Z,65.10
2017-06-27T18:14:58.364Z,63.10
2017-06-27T18:17:26.660Z,63.10
2017-06-27T18:19:54.940Z,65.00
2017-06-27T18:22:23.231Z,64.20
2017-06-27T18:24:51.527Z,64.80
2017-06-27T18:27:20.579Z,65.30
2017-06-27T18:29:48.896Z,65.30
2017-06-27T18:32:17.941Z,64.90
2017-06-27T18:34:46.234Z,63.90
2017-06-27T18:37:14.505Z,64.90
2017-06-27T18:39:42.800Z,66.00
2017-06-27T18:42:11.079Z,68.40
2017-06-27T18:44:39.392Z,70.60
2017-06-27T18:47:07.663Z,72.00
2017-06-27T18:49:36.703Z,71.50
2017-06-27T18:52:05.028Z,71.50
2017-06-27T18:54:33.303Z,72.30
2017-06-27T18:57:02.196Z,71.10
2017-06-27T18:59:33.468Z,72.70
2017-06-27T19:02:01.757Z,71.40
2017-06-27T19:04:30.036Z,73.20
2017-06-27T19:06:58.348Z,72.60
2017-06-27T19:09:27.444Z,73.90
2017-06-27T19:11:55.769Z,74.00
2017-06-27T19:14:24.056Z,74.00
2017-06-27T19:16:52.396Z,74.20
2017-06-27T19:19:21.448Z,74.40
2017-06-27T19:21:49.720Z,74.40
2017-06-27T19:24:18.089Z,72.20
2017-06-27T19:26:47.191Z,74.00
2017-06-27T19:29:15.464Z,75.00
2017-06-27T19:31:43.776Z,75.10
2017-06-27T19:34:12.047Z,75.50
2017-06-27T19:36:40.351Z,77.30
2017-06-27T19:39:08.633Z,77.00
2017-06-27T19:41:36.935Z,78.30
2017-06-27T19:44:05.208Z,76.80
2017-06-27T19:46:33.516Z,76.60
2017-06-27T19:49:01.795Z,75.70
2017-06-27T19:51:30.081Z,74.00
2017-06-27T19:53:58.369Z,76.10
2017-06-27T19:56:27.415Z,76.40
2017-06-27T19:58:55.748Z,76.40
2017-06-27T20:01:24.044Z,76.60
2017-06-27T20:03:52.336Z,76.80
2017-06-27T20:06:20.611Z,77.70
2017-06-27T20:08:48.907Z,76.50
2017-06-27T20:11:17.252Z,76.90
2017-06-27T20:13:45.540Z,77.40
2017-06-27T20:16:13.873Z,77.30
2017-06-27T20:18:42.148Z,78.40
2017-06-27T20:21:10.498Z,78.60
2017-06-27T20:23:38.821Z,78.30
2017-06-27T20:26:07.887Z,79.70
2017-06-27T20:28:36.229Z,79.70
2017-06-27T20:31:04.514Z,80.30
2017-06-27T20:33:32.800Z,81.10
2017-06-27T20:36:01.156Z,80.90
2017-06-27T20:38:29.497Z,80.20
2017-06-27T20:40:57.776Z,80.40
2017-06-27T20:43:26.892Z,80.40
2017-06-27T20:45:55.964Z,80.00
2017-06-27T20:48:24.266Z,80.00
2017-06-27T20:50:53.307Z,79.10
2017-06-27T20:53:21.671Z,79.10
2017-06-27T20:55:49.927Z,79.20
2017-06-27T20:58:18.224Z,79.30
2017-06-27T21:00:46.561Z,79.30
2017-06-27T21:03:15.037Z,79.10
2017-06-27T21:05:43.319Z,79.50
2017-06-27T21:08:12.371Z,79.90
2017-06-27T21:10:40.708Z,79.80
2017-06-27T21:13:08.996Z,79.00
2017-06-27T21:15:37.270Z,79.20
2017-06-27T21:18:05.634Z,78.80
2017-06-27T21:20:34.671Z,79.40
2017-06-27T21:23:03.028Z,79.40
2017-06-27T21:25:31.368Z,79.10
2017-06-27T21:27:59.644Z,79.30
2017-06-27T21:30:27.928Z,79.70
2017-06-27T21:32:56.968Z,80.60
2017-06-27T21:35:25.268Z,80.60
2017-06-27T21:37:53.548Z,79.70
2017-06-27T21:40:21.837Z,79.80
2017-06-27T21:42:50.103Z,79.70
2017-06-27T21:45:18.395Z,79.20
2017-06-27T21:47:46.682Z,79.60
2017-06-27T21:50:14.960Z,78.80
2017-06-27T21:52:43.236Z,78.90
2017-06-27T21:55:11.519Z,78.80
2017-06-27T21:57:39.789Z,78.70
2017-06-27T22:00:08.104Z,79.10
2017-06-27T22:02:37.163Z,79.20
2017-06-27T22:05:05.436Z,79.20
2017-06-27T22:07:33.727Z,79.50
2017-06-27T22:10:02.002Z,79.30
2017-06-27T22:12:30.299Z,79.80
2017-06-27T22:14:58.586Z,79.50
2017-06-27T22:17:27.639Z,79.60
2017-06-27T22:19:55.924Z,79.60
2017-06-27T22:22:24.229Z,79.60
2017-06-27T22:24:52.491Z,79.60
2017-06-27T22:27:20.790Z,79.40
2017-06-27T22:29:49.827Z,79.10
2017-06-27T22:32:18.156Z,78.50
2017-06-27T22:34:46.431Z,78.70
2017-06-27T22:37:14.723Z,78.90
2017-06-27T22:39:43.799Z,79.30
2017-06-27T22:42:12.073Z,79.30
2017-06-27T22:44:40.364Z,79.70
2017-06-27T22:47:08.648Z,79.60
2017-06-27T22:49:36.959Z,79.60
2017-06-27T22:52:05.240Z,79.30
2017-06-27T22:54:33.536Z,79.30
2017-06-27T22:57:01.811Z,79.50
2017-06-27T22:59:30.117Z,79.70
2017-06-27T23:01:58.400Z,79.70
2017-06-27T23:04:26.687Z,80.00
2017-06-27T23:06:55.721Z,80.00
2017-06-27T23:09:24.020Z,80.00
2017-06-27T23:11:52.296Z,80.20
2017-06-27T23:14:20.572Z,80.00
2017-06-27T23:16:48.855Z,80.30
2017-06-27T23:19:17.124Z,79.90
2017-06-27T23:21:45.431Z,79.60
2017-06-27T23:24:13.698Z,79.30
2017-06-27T23:26:41.992Z,79.00
2017-06-27T23:29:10.280Z,78.70
2017-06-27T23:31:39.331Z,78.90
2017-06-27T23:34:07.624Z,78.90
2017-06-27T23:36:35.927Z,79.30
2017-06-27T23:39:04.970Z,79.30
2017-06-27T23:41:33.269Z,79.30
2017-06-27T23:44:01.543Z,78.70
2017-06-27T23:46:29.848Z,78.40
2017-06-27T23:48:58.124Z,78.40
2017-06-27T23:51:26.403Z,78.30
2017-06-27T23:53:55.468Z,78.40
2017-06-27T23:56:23.743Z,78.30
2017-06-27T23:58:52.041Z,78.60
